sensor_id;sensor_type;location;lat;lon;timestamp;temperature;humidity
75517;DHT22;64097;52.548;13.406;2023-12-20T07:11:51;12.70;62.40
75517;DHT22;64097;52.548;13.406;2023-12-20T07:14:17;12.70;62.30
75517;DHT22;64097;52.548;13.406;2023-12-20T07:16:43;12.70;62.20
75517;DHT22;64097;52.548;13.406;2023-12-20T07:19:08;12.60;62.20
75517;DHT22;64097;52.548;13.406;2023-12-20T07:21:34;12.70;62.40
75517;DHT22;64097;52.548;13.406;2023-12-20T07:24:00;12.70;62.40
75517;DHT22;64097;52.548;13.406;2023-12-20T07:26:25;12.80;62.20
75517;DHT22;64097;52.548;13.406;2023-12-20T07:28:51;12.70;62.10
75517;DHT22;64097;52.548;13.406;2023-12-20T07:31:17;12.70;61.90
75517;DHT22;64097;52.548;13.406;2023-12-20T07:33:42;12.70;61.80
75517;DHT22;64097;52.548;13.406;2023-12-20T07:36:08;12.70;61.70
75517;DHT22;64097;52.548;13.406;2023-12-20T07:38:34;12.80;61.90
75517;DHT22;64097;52.548;13.406;2023-12-20T07:41:00;12.80;61.80
75517;DHT22;64097;52.548;13.406;2023-12-20T07:43:26;12.80;61.90
75517;DHT22;64097;52.548;13.406;2023-12-20T07:45:51;12.80;61.90
75517;DHT22;64097;52.548;13.406;2023-12-20T07:48:17;12.80;61.60
75517;DHT22;64097;52.548;13.406;2023-12-20T07:50:43;12.80;61.60
75517;DHT22;64097;52.548;13.406;2023-12-20T07:53:09;12.80;61.70
75517;DHT22;64097;52.548;13.406;2023-12-20T07:55:36;12.80;62.50
75517;DHT22;64097;52.548;13.406;2023-12-20T07:58:02;12.80;61.60
75517;DHT22;64097;52.548;13.406;2023-12-20T08:00:28;12.80;61.60
75517;DHT22;64097;52.548;13.406;2023-12-20T08:02:53;12.80;61.40
75517;DHT22;64097;52.548;13.406;2023-12-20T08:05:19;12.80;61.40
75517;DHT22;64097;52.548;13.406;2023-12-20T08:07:44;12.80;61.30
75517;DHT22;64097;52.548;13.406;2023-12-20T08:10:10;12.80;61.20
75517;DHT22;64097;52.548;13.406;2023-12-20T08:12:36;12.80;61.30
75517;DHT22;64097;52.548;13.406;2023-12-20T08:15:02;12.90;61.40
75517;DHT22;64097;52.548;13.406;2023-12-20T08:17:29;12.90;61.20
75517;DHT22;64097;52.548;13.406;2023-12-20T08:19:56;12.90;61.20
75517;DHT22;64097;52.548;13.406;2023-12-20T08:22:21;12.90;61.50
75517;DHT22;64097;52.548;13.406;2023-12-20T08:24:47;12.90;61.10
75517;DHT22;64097;52.548;13.406;2023-12-20T08:27:13;12.90;61.10
75517;DHT22;64097;52.548;13.406;2023-12-20T08:29:39;12.90;61.10
75517;DHT22;64097;52.548;13.406;2023-12-20T08:32:04;12.90;61.20
75517;DHT22;64097;52.548;13.406;2023-12-20T08:34:30;12.90;61.00
75517;DHT22;64097;52.548;13.406;2023-12-20T08:36:56;12.90;61.10
75517;DHT22;64097;52.548;13.406;2023-12-20T08:39:22;12.90;60.90
75517;DHT22;64097;52.548;13.406;2023-12-20T08:41:48;13.00;61.00
75517;DHT22;64097;52.548;13.406;2023-12-20T08:44:13;12.90;60.90
75517;DHT22;64097;52.548;13.406;2023-12-20T08:46:39;13.00;60.90
75517;DHT22;64097;52.548;13.406;2023-12-20T08:49:05;13.00;61.10
75517;DHT22;64097;52.548;13.406;2023-12-20T08:51:31;13.00;60.90
75517;DHT22;64097;52.548;13.406;2023-12-20T08:53:57;13.00;60.90
75517;DHT22;64097;52.548;13.406;2023-12-20T08:56:23;13.10;60.80
75517;DHT22;64097;52.548;13.406;2023-12-20T08:58:48;13.10;60.80
75517;DHT22;64097;52.548;13.406;2023-12-20T09:01:14;13.10;60.70
75517;DHT22;64097;52.548;13.406;2023-12-20T09:03:40;13.20;60.70
75517;DHT22;64097;52.548;13.406;2023-12-20T09:06:06;13.20;60.70
75517;DHT22;64097;52.548;13.406;2023-12-20T09:08:32;13.20;60.60
75517;DHT22;64097;52.548;13.406;2023-12-20T09:10:58;13.20;60.70
75517;DHT22;64097;52.548;13.406;2023-12-20T09:13:24;13.30;60.50
75517;DHT22;64097;52.548;13.406;2023-12-20T09:15:56;13.30;60.40
75517;DHT22;64097;52.548;13.406;2023-12-20T09:18:22;13.40;60.40
75517;DHT22;64097;52.548;13.406;2023-12-20T09:20:48;13.30;60.30
75517;DHT22;64097;52.548;13.406;2023-12-20T09:23:13;13.40;60.10
75517;DHT22;64097;52.548;13.406;2023-12-20T09:25:39;13.40;59.90
75517;DHT22;64097;52.548;13.406;2023-12-20T09:28:05;13.40;59.70
75517;DHT22;64097;52.548;13.406;2023-12-20T09:30:31;13.40;59.80
75517;DHT22;64097;52.548;13.406;2023-12-20T09:32:57;13.40;59.70
75517;DHT22;64097;52.548;13.406;2023-12-20T09:35:23;13.40;59.60
75517;DHT22;64097;52.548;13.406;2023-12-20T09:37:49;13.50;59.60
75517;DHT22;64097;52.548;13.406;2023-12-20T09:40:18;13.50;59.60
75517;DHT22;64097;52.548;13.406;2023-12-20T09:43:08;13.50;59.60
75517;DHT22;64097;52.548;13.406;2023-12-20T09:45:36;13.50;59.70
75517;DHT22;64097;52.548;13.406;2023-12-20T09:48:03;13.50;59.60
75517;DHT22;64097;52.548;13.406;2023-12-20T09:50:30;13.50;59.60
75517;DHT22;64097;52.548;13.406;2023-12-20T09:52:58;13.50;59.60
75517;DHT22;64097;52.548;13.406;2023-12-20T09:55:25;13.50;59.50
75517;DHT22;64097;52.548;13.406;2023-12-20T09:57:52;13.50;59.60
75517;DHT22;64097;52.548;13.406;2023-12-20T10:00:18;13.50;59.20
75517;DHT22;64097;52.548;13.406;2023-12-20T10:03:02;13.50;59.50
75517;DHT22;64097;52.548;13.406;2023-12-20T10:05:33;13.50;59.40
75517;DHT22;64097;52.548;13.406;2023-12-20T10:08:01;13.50;59.30
75517;DHT22;64097;52.548;13.406;2023-12-20T10:10:27;13.50;59.30
75517;DHT22;64097;52.548;13.406;2023-12-20T10:13:09;13.50;59.20
75517;DHT22;64097;52.548;13.406;2023-12-20T10:15:36;13.50;59.10
75517;DHT22;64097;52.548;13.406;2023-12-20T10:18:03;13.50;59.10
75517;DHT22;64097;52.548;13.406;2023-12-20T10:20:30;13.50;59.00
75517;DHT22;64097;52.548;13.406;2023-12-20T10:22:57;13.50;58.90
75517;DHT22;64097;52.548;13.406;2023-12-20T10:25:23;13.50;58.90
75517;DHT22;64097;52.548;13.406;2023-12-20T10:27:50;13.50;58.80
75517;DHT22;64097;52.548;13.406;2023-12-20T10:30:17;13.50;58.70
75517;DHT22;64097;52.548;13.406;2023-12-20T10:32:43;13.50;58.80
75517;DHT22;64097;52.548;13.406;2023-12-20T10:35:09;13.50;58.70
75517;DHT22;64097;52.548;13.406;2023-12-20T10:37:36;13.50;58.60
75517;DHT22;64097;52.548;13.406;2023-12-20T10:40:04;13.50;59.20
75517;DHT22;64097;52.548;13.406;2023-12-20T10:42:31;13.50;58.70
75517;DHT22;64097;52.548;13.406;2023-12-20T10:44:59;13.50;58.60
75517;DHT22;64097;52.548;13.406;2023-12-20T10:47:25;13.50;59.30
75517;DHT22;64097;52.548;13.406;2023-12-20T10:49:54;13.50;58.60
75517;DHT22;64097;52.548;13.406;2023-12-20T10:52:22;13.50;58.60
75517;DHT22;64097;52.548;13.406;2023-12-20T10:54:48;13.60;58.70
75517;DHT22;64097;52.548;13.406;2023-12-20T10:57:15;13.70;58.70
75517;DHT22;64097;52.548;13.406;2023-12-20T10:59:43;13.70;58.60
75517;DHT22;64097;52.548;13.406;2023-12-20T11:02:11;13.70;58.50
75517;DHT22;64097;52.548;13.406;2023-12-20T11:04:55;13.70;58.30
75517;DHT22;64097;52.548;13.406;2023-12-20T11:07:29;13.70;58.30
75517;DHT22;64097;52.548;13.406;2023-12-20T11:10:02;13.70;58.10
75517;DHT22;64097;52.548;13.406;2023-12-20T11:12:39;13.70;58.10
75517;DHT22;64097;52.548;13.406;2023-12-20T11:15:07;13.70;58.10
75517;DHT22;64097;52.548;13.406;2023-12-20T11:17:33;13.70;57.90
75517;DHT22;64097;52.548;13.406;2023-12-20T11:22:30;13.70;58.00
75517;DHT22;64097;52.548;13.406;2023-12-20T11:25:14;13.70;58.10
75517;DHT22;64097;52.548;13.406;2023-12-20T11:27:41;13.70;58.20
75517;DHT22;64097;52.548;13.406;2023-12-20T11:30:08;13.70;58.30
75517;DHT22;64097;52.548;13.406;2023-12-20T11:32:36;13.70;58.30
75517;DHT22;64097;52.548;13.406;2023-12-20T11:37:38;13.70;58.60
75517;DHT22;64097;52.548;13.406;2023-12-20T11:40:13;13.70;58.60
75517;DHT22;64097;52.548;13.406;2023-12-20T11:42:52;13.70;58.50
75517;DHT22;64097;52.548;13.406;2023-12-20T11:45:21;13.70;58.60
75517;DHT22;64097;52.548;13.406;2023-12-20T11:47:51;13.70;58.70
75517;DHT22;64097;52.548;13.406;2023-12-20T11:50:21;13.70;58.80
75517;DHT22;64097;52.548;13.406;2023-12-20T11:52:48;13.80;58.80
75517;DHT22;64097;52.548;13.406;2023-12-20T11:55:14;13.80;58.80
75517;DHT22;64097;52.548;13.406;2023-12-20T11:57:41;13.80;58.80
75517;DHT22;64097;52.548;13.406;2023-12-20T12:00:07;13.80;58.70
75517;DHT22;64097;52.548;13.406;2023-12-20T12:02:33;13.80;58.80
75517;DHT22;64097;52.548;13.406;2023-12-20T12:05:00;13.90;58.70
75517;DHT22;64097;52.548;13.406;2023-12-20T12:07:25;13.90;58.70
75517;DHT22;64097;52.548;13.406;2023-12-20T12:09:52;13.90;58.60
75517;DHT22;64097;52.548;13.406;2023-12-20T12:12:18;13.90;58.60
75517;DHT22;64097;52.548;13.406;2023-12-20T12:14:45;13.90;58.40
75517;DHT22;64097;52.548;13.406;2023-12-20T12:17:11;14.00;58.30
75517;DHT22;64097;52.548;13.406;2023-12-20T12:19:38;13.90;58.10
75517;DHT22;64097;52.548;13.406;2023-12-20T12:22:08;14.00;58.20
75517;DHT22;64097;52.548;13.406;2023-12-20T12:24:39;14.00;58.10
75517;DHT22;64097;52.548;13.406;2023-12-20T12:27:08;14.00;58.00
75517;DHT22;64097;52.548;13.406;2023-12-20T12:29:37;13.90;58.00
75517;DHT22;64097;52.548;13.406;2023-12-20T12:32:12;13.90;58.10
75517;DHT22;64097;52.548;13.406;2023-12-20T12:34:37;13.90;58.20
75517;DHT22;64097;52.548;13.406;2023-12-20T12:37:04;14.00;58.20
75517;DHT22;64097;52.548;13.406;2023-12-20T12:39:30;13.90;58.40
75517;DHT22;64097;52.548;13.406;2023-12-20T12:41:56;13.90;58.60
75517;DHT22;64097;52.548;13.406;2023-12-20T12:44:22;13.90;58.70
75517;DHT22;64097;52.548;13.406;2023-12-20T12:46:50;13.90;58.80
75517;DHT22;64097;52.548;13.406;2023-12-20T12:49:17;13.80;58.90
75517;DHT22;64097;52.548;13.406;2023-12-20T12:51:43;13.80;59.00
75517;DHT22;64097;52.548;13.406;2023-12-20T12:54:09;13.80;59.20
75517;DHT22;64097;52.548;13.406;2023-12-20T12:56:36;13.70;59.30
75517;DHT22;64097;52.548;13.406;2023-12-20T12:59:02;13.80;59.50
75517;DHT22;64097;52.548;13.406;2023-12-20T13:01:28;13.70;59.60
75517;DHT22;64097;52.548;13.406;2023-12-20T13:03:53;13.70;59.70
75517;DHT22;64097;52.548;13.406;2023-12-20T13:06:20;13.70;59.80
75517;DHT22;64097;52.548;13.406;2023-12-20T13:08:46;13.70;59.80
75517;DHT22;64097;52.548;13.406;2023-12-20T13:11:12;13.70;59.80
75517;DHT22;64097;52.548;13.406;2023-12-20T13:13:38;13.60;59.90
75517;DHT22;64097;52.548;13.406;2023-12-20T13:16:04;13.70;60.20
75517;DHT22;64097;52.548;13.406;2023-12-20T13:18:30;13.60;60.40
75517;DHT22;64097;52.548;13.406;2023-12-20T13:20:56;13.60;60.60
75517;DHT22;64097;52.548;13.406;2023-12-20T13:23:21;13.60;60.80
75517;DHT22;64097;52.548;13.406;2023-12-20T13:25:47;13.60;60.50
75517;DHT22;64097;52.548;13.406;2023-12-20T13:28:13;13.60;60.60
75517;DHT22;64097;52.548;13.406;2023-12-20T13:30:39;13.50;60.50
75517;DHT22;64097;52.548;13.406;2023-12-20T13:33:06;13.50;60.40
75517;DHT22;64097;52.548;13.406;2023-12-20T13:35:32;13.40;61.30
75517;DHT22;64097;52.548;13.406;2023-12-20T13:37:58;13.40;59.90
75517;DHT22;64097;52.548;13.406;2023-12-20T13:40:24;13.40;59.80
75517;DHT22;64097;52.548;13.406;2023-12-20T13:42:50;13.30;59.50
75517;DHT22;64097;52.548;13.406;2023-12-20T13:45:16;13.30;59.70
75517;DHT22;64097;52.548;13.406;2023-12-20T13:47:42;13.30;59.60
75517;DHT22;64097;52.548;13.406;2023-12-20T13:50:08;13.30;59.50
75517;DHT22;64097;52.548;13.406;2023-12-20T13:52:34;13.30;59.40
75517;DHT22;64097;52.548;13.406;2023-12-20T13:54:59;13.30;59.30
75517;DHT22;64097;52.548;13.406;2023-12-20T13:57:25;13.20;58.90
75517;DHT22;64097;52.548;13.406;2023-12-20T13:59:52;13.20;58.90
